sensor_id;sensor_type;location;lat;lon;timestamp;temperature;humidity
21592;DHT22;10958;50.892;3.992;2023-03-23T00:01:48;13.00;99.90
21592;DHT22;10958;50.892;3.992;2023-03-23T00:04:18;13.00;99.90
21592;DHT22;10958;50.892;3.992;2023-03-23T00:06:49;13.00;99.90
21592;DHT22;10958;50.892;3.992;2023-03-23T00:09:15;13.00;99.90
21592;DHT22;10958;50.892;3.992;2023-03-23T00:11:42;13.00;99.90
21592;DHT22;10958;50.892;3.992;2023-03-23T00:14:09;12.90;99.90
21592;DHT22;10958;50.892;3.992;2023-03-23T00:16:39;12.90;99.90
21592;DHT22;10958;50.892;3.992;2023-03-23T00:19:16;13.00;99.90
21592;DHT22;10958;50.892;3.992;2023-03-23T00:21:42;13.00;99.90
21592;DHT22;10958;50.892;3.992;2023-03-23T00:24:17;13.00;99.90
21592;DHT22;10958;50.892;3.992;2023-03-23T00:26:45;13.00;99.90
21592;DHT22;10958;50.892;3.992;2023-03-23T00:29:19;13.00;99.90
21592;DHT22;10958;50.892;3.992;2023-03-23T00:31:47;13.00;99.90
21592;DHT22;10958;50.892;3.992;2023-03-23T00:34:15;13.10;99.90
21592;DHT22;10958;50.892;3.992;2023-03-23T00:36:50;13.10;99.90
21592;DHT22;10958;50.892;3.992;2023-03-23T00:39:17;13.20;99.90
21592;DHT22;10958;50.892;3.992;2023-03-23T00:41:46;13.20;99.90
21592;DHT22;10958;50.892;3.992;2023-03-23T00:44:15;13.20;99.90
21592;DHT22;10958;50.892;3.992;2023-03-23T00:46:51;13.10;99.90
21592;DHT22;10958;50.892;3.992;2023-03-23T00:49:21;13.20;99.90
21592;DHT22;10958;50.892;3.992;2023-03-23T00:51:54;13.10;99.90
21592;DHT22;10958;50.892;3.992;2023-03-23T00:54:21;13.10;99.90
21592;DHT22;10958;50.892;3.992;2023-03-23T00:56:48;13.00;99.90
21592;DHT22;10958;50.892;3.992;2023-03-23T00:59:14;13.00;99.90
21592;DHT22;10958;50.892;3.992;2023-03-23T01:01:40;13.10;99.90
21592;DHT22;10958;50.892;3.992;2023-03-23T01:04:06;13.10;99.90
21592;DHT22;10958;50.892;3.992;2023-03-23T01:06:36;13.10;99.90
21592;DHT22;10958;50.892;3.992;2023-03-23T01:09:05;13.10;99.90
21592;DHT22;10958;50.892;3.992;2023-03-23T01:11:34;13.10;99.90
21592;DHT22;10958;50.892;3.992;2023-03-23T01:14:00;13.10;99.90
21592;DHT22;10958;50.892;3.992;2023-03-23T01:16:27;13.10;99.90
21592;DHT22;10958;50.892;3.992;2023-03-23T01:18:52;13.10;99.90
21592;DHT22;10958;50.892;3.992;2023-03-23T01:21:20;13.10;99.90
21592;DHT22;10958;50.892;3.992;2023-03-23T01:23:47;13.10;99.90
21592;DHT22;10958;50.892;3.992;2023-03-23T01:26:20;13.20;99.90
21592;DHT22;10958;50.892;3.992;2023-03-23T01:28:47;13.10;99.90
21592;DHT22;10958;50.892;3.992;2023-03-23T01:31:16;13.20;99.90
21592;DHT22;10958;50.892;3.992;2023-03-23T01:33:45;13.10;99.90
21592;DHT22;10958;50.892;3.992;2023-03-23T01:36:24;13.10;99.90
21592;DHT22;10958;50.892;3.992;2023-03-23T01:38:56;13.10;99.90
21592;DHT22;10958;50.892;3.992;2023-03-23T01:41:23;13.10;99.90
21592;DHT22;10958;50.892;3.992;2023-03-23T01:44:03;13.10;99.90
21592;DHT22;10958;50.892;3.992;2023-03-23T01:46:31;13.10;99.90
21592;DHT22;10958;50.892;3.992;2023-03-23T01:49:03;13.10;99.90
21592;DHT22;10958;50.892;3.992;2023-03-23T01:51:39;13.10;99.90
21592;DHT22;10958;50.892;3.992;2023-03-23T01:54:07;13.10;99.90
21592;DHT22;10958;50.892;3.992;2023-03-23T01:56:45;13.10;99.90
21592;DHT22;10958;50.892;3.992;2023-03-23T01:59:12;13.10;99.90
21592;DHT22;10958;50.892;3.992;2023-03-23T02:01:39;13.10;99.90
21592;DHT22;10958;50.892;3.992;2023-03-23T02:04:13;13.10;99.90
21592;DHT22;10958;50.892;3.992;2023-03-23T02:06:40;13.10;99.90
21592;DHT22;10958;50.892;3.992;2023-03-23T02:09:06;13.10;99.90
21592;DHT22;10958;50.892;3.992;2023-03-23T02:11:35;13.10;99.90
21592;DHT22;10958;50.892;3.992;2023-03-23T02:14:01;13.00;99.90
21592;DHT22;10958;50.892;3.992;2023-03-23T02:16:46;13.00;99.90
21592;DHT22;10958;50.892;3.992;2023-03-23T02:19:37;13.00;99.90
21592;DHT22;10958;50.892;3.992;2023-03-23T02:27:36;12.90;99.90
21592;DHT22;10958;50.892;3.992;2023-03-23T02:35:56;12.90;99.90
21592;DHT22;10958;50.892;3.992;2023-03-23T02:38:42;12.90;99.90
21592;DHT22;10958;50.892;3.992;2023-03-23T02:41:11;12.90;99.90
21592;DHT22;10958;50.892;3.992;2023-03-23T02:43:43;12.90;99.90
21592;DHT22;10958;50.892;3.992;2023-03-23T02:46:10;12.90;99.90
21592;DHT22;10958;50.892;3.992;2023-03-23T02:48:39;12.80;99.90
21592;DHT22;10958;50.892;3.992;2023-03-23T02:51:08;12.90;99.90
21592;DHT22;10958;50.892;3.992;2023-03-23T02:53:38;12.80;99.90
21592;DHT22;10958;50.892;3.992;2023-03-23T02:56:06;12.90;99.90
21592;DHT22;10958;50.892;3.992;2023-03-23T02:58:33;12.90;99.90
21592;DHT22;10958;50.892;3.992;2023-03-23T03:00:59;12.80;99.90
21592;DHT22;10958;50.892;3.992;2023-03-23T03:03:28;12.90;99.90
21592;DHT22;10958;50.892;3.992;2023-03-23T03:09:13;12.80;99.90
21592;DHT22;10958;50.892;3.992;2023-03-23T03:11:45;12.90;99.90
21592;DHT22;10958;50.892;3.992;2023-03-23T03:14:26;12.90;99.90
21592;DHT22;10958;50.892;3.992;2023-03-23T03:17:04;12.80;99.90
21592;DHT22;10958;50.892;3.992;2023-03-23T03:19:38;12.80;99.90
21592;DHT22;10958;50.892;3.992;2023-03-23T03:22:06;12.80;99.90
21592;DHT22;10958;50.892;3.992;2023-03-23T03:24:33;12.80;99.90
21592;DHT22;10958;50.892;3.992;2023-03-23T03:27:01;12.80;99.90
21592;DHT22;10958;50.892;3.992;2023-03-23T03:29:37;12.80;99.90
21592;DHT22;10958;50.892;3.992;2023-03-23T03:32:15;12.90;99.90
21592;DHT22;10958;50.892;3.992;2023-03-23T03:34:42;12.90;99.90
21592;DHT22;10958;50.892;3.992;2023-03-23T03:37:08;12.90;99.90
21592;DHT22;10958;50.892;3.992;2023-03-23T03:39:38;12.90;99.90
21592;DHT22;10958;50.892;3.992;2023-03-23T03:42:06;12.80;99.90
21592;DHT22;10958;50.892;3.992;2023-03-23T03:44:33;12.80;99.90
21592;DHT22;10958;50.892;3.992;2023-03-23T03:46:59;12.80;99.90
21592;DHT22;10958;50.892;3.992;2023-03-23T03:49:27;12.80;99.90
21592;DHT22;10958;50.892;3.992;2023-03-23T03:51:53;12.80;99.90
21592;DHT22;10958;50.892;3.992;2023-03-23T03:54:20;12.80;99.90
21592;DHT22;10958;50.892;3.992;2023-03-23T03:56:46;12.80;99.90
21592;DHT22;10958;50.892;3.992;2023-03-23T03:59:12;12.80;99.90
21592;DHT22;10958;50.892;3.992;2023-03-23T04:01:38;12.80;99.90
21592;DHT22;10958;50.892;3.992;2023-03-23T04:04:04;12.80;99.90
21592;DHT22;10958;50.892;3.992;2023-03-23T04:06:33;12.80;99.90
21592;DHT22;10958;50.892;3.992;2023-03-23T04:09:02;12.80;99.90
21592;DHT22;10958;50.892;3.992;2023-03-23T04:11:31;12.80;99.90
21592;DHT22;10958;50.892;3.992;2023-03-23T04:13:57;12.80;99.90
21592;DHT22;10958;50.892;3.992;2023-03-23T04:16:23;12.80;99.90
21592;DHT22;10958;50.892;3.992;2023-03-23T04:18:49;12.80;99.90
21592;DHT22;10958;50.892;3.992;2023-03-23T04:21:15;12.80;99.90
21592;DHT22;10958;50.892;3.992;2023-03-23T04:23:41;12.80;99.90
21592;DHT22;10958;50.892;3.992;2023-03-23T04:26:07;12.80;99.90
21592;DHT22;10958;50.892;3.992;2023-03-23T04:28:33;12.70;99.90
21592;DHT22;10958;50.892;3.992;2023-03-23T04:31:00;12.70;99.90
21592;DHT22;10958;50.892;3.992;2023-03-23T04:33:29;12.70;99.90
21592;DHT22;10958;50.892;3.992;2023-03-23T04:35:59;12.60;99.90
21592;DHT22;10958;50.892;3.992;2023-03-23T04:38:27;12.60;99.90
21592;DHT22;10958;50.892;3.992;2023-03-23T04:40:53;12.60;99.90
21592;DHT22;10958;50.892;3.992;2023-03-23T04:43:21;12.50;99.90
21592;DHT22;10958;50.892;3.992;2023-03-23T04:45:58;12.50;99.90
21592;DHT22;10958;50.892;3.992;2023-03-23T04:48:27;12.40;99.90
21592;DHT22;10958;50.892;3.992;2023-03-23T04:51:00;12.40;99.90
21592;DHT22;10958;50.892;3.992;2023-03-23T04:53:28;12.40;99.90
21592;DHT22;10958;50.892;3.992;2023-03-23T04:55:54;12.40;99.90
21592;DHT22;10958;50.892;3.992;2023-03-23T04:58:19;12.40;99.90
21592;DHT22;10958;50.892;3.992;2023-03-23T05:00:46;12.40;99.90
21592;DHT22;10958;50.892;3.992;2023-03-23T05:03:16;12.40;99.90
21592;DHT22;10958;50.892;3.992;2023-03-23T05:05:44;12.50;99.90
21592;DHT22;10958;50.892;3.992;2023-03-23T05:08:21;12.50;99.90
21592;DHT22;10958;50.892;3.992;2023-03-23T05:10:55;12.50;99.90
21592;DHT22;10958;50.892;3.992;2023-03-23T05:13:22;12.60;99.90
21592;DHT22;10958;50.892;3.992;2023-03-23T05:15:47;12.60;99.90
21592;DHT22;10958;50.892;3.992;2023-03-23T05:18:16;12.60;99.90
21592;DHT22;10958;50.892;3.992;2023-03-23T05:20:42;12.60;99.90
21592;DHT22;10958;50.892;3.992;2023-03-23T05:23:09;12.60;99.90
21592;DHT22;10958;50.892;3.992;2023-03-23T05:25:35;12.50;99.90
21592;DHT22;10958;50.892;3.992;2023-03-23T05:28:09;12.60;99.90
21592;DHT22;10958;50.892;3.992;2023-03-23T05:30:36;12.50;99.90
21592;DHT22;10958;50.892;3.992;2023-03-23T05:33:02;12.50;99.90
21592;DHT22;10958;50.892;3.992;2023-03-23T05:35:32;12.60;99.90
21592;DHT22;10958;50.892;3.992;2023-03-23T05:37:58;12.60;99.90
21592;DHT22;10958;50.892;3.992;2023-03-23T05:40:24;12.50;99.90
21592;DHT22;10958;50.892;3.992;2023-03-23T05:42:51;12.50;99.90
21592;DHT22;10958;50.892;3.992;2023-03-23T05:45:17;12.40;99.90
21592;DHT22;10958;50.892;3.992;2023-03-23T05:47:43;12.40;99.90
21592;DHT22;10958;50.892;3.992;2023-03-23T05:50:10;12.50;99.90
21592;DHT22;10958;50.892;3.992;2023-03-23T05:52:36;12.40;99.90
21592;DHT22;10958;50.892;3.992;2023-03-23T05:55:03;12.50;99.90
21592;DHT22;10958;50.892;3.992;2023-03-23T05:57:30;12.50;99.90
21592;DHT22;10958;50.892;3.992;2023-03-23T05:59:57;12.50;99.90
21592;DHT22;10958;50.892;3.992;2023-03-23T06:02:24;12.50;99.90
21592;DHT22;10958;50.892;3.992;2023-03-23T06:04:51;12.50;99.90
21592;DHT22;10958;50.892;3.992;2023-03-23T06:07:25;12.40;99.90
21592;DHT22;10958;50.892;3.992;2023-03-23T06:09:52;12.40;99.90
21592;DHT22;10958;50.892;3.992;2023-03-23T06:12:18;11.70;99.90
21592;DHT22;10958;50.892;3.992;2023-03-23T06:14:46;11.20;99.90
21592;DHT22;10958;50.892;3.992;2023-03-23T06:17:16;10.80;99.90
21592;DHT22;10958;50.892;3.992;2023-03-23T06:19:43;10.50;99.90
21592;DHT22;10958;50.892;3.992;2023-03-23T06:22:09;10.50;99.90
21592;DHT22;10958;50.892;3.992;2023-03-23T06:24:36;10.50;99.90
21592;DHT22;10958;50.892;3.992;2023-03-23T06:27:01;10.20;99.90
21592;DHT22;10958;50.892;3.992;2023-03-23T06:29:27;10.20;99.90
21592;DHT22;10958;50.892;3.992;2023-03-23T06:31:59;10.20;99.90
21592;DHT22;10958;50.892;3.992;2023-03-23T06:34:25;10.20;99.90
21592;DHT22;10958;50.892;3.992;2023-03-23T06:36:54;10.30;99.90
21592;DHT22;10958;50.892;3.992;2023-03-23T06:39:20;10.20;99.90
21592;DHT22;10958;50.892;3.992;2023-03-23T06:41:48;10.30;99.90
21592;DHT22;10958;50.892;3.992;2023-03-23T06:44:14;10.30;99.90
21592;DHT22;10958;50.892;3.992;2023-03-23T06:46:42;10.30;99.90
21592;DHT22;10958;50.892;3.992;2023-03-23T06:49:09;10.30;99.90
21592;DHT22;10958;50.892;3.992;2023-03-23T06:51:35;10.30;99.90
21592;DHT22;10958;50.892;3.992;2023-03-23T06:54:02;10.40;99.90
21592;DHT22;10958;50.892;3.992;2023-03-23T06:56:28;10.40;99.90
21592;DHT22;10958;50.892;3.992;2023-03-23T06:58:55;10.30;99.90
21592;DHT22;10958;50.892;3.992;2023-03-23T07:01:23;10.40;99.90
21592;DHT22;10958;50.892;3.992;2023-03-23T07:03:49;10.40;99.90
21592;DHT22;10958;50.892;3.992;2023-03-23T07:06:15;10.50;99.90
21592;DHT22;10958;50.892;3.992;2023-03-23T07:08:41;10.50;99.90
21592;DHT22;10958;50.892;3.992;2023-03-23T07:11:07;10.60;99.90
21592;DHT22;10958;50.892;3.992;2023-03-23T07:13:33;10.70;99.90
21592;DHT22;10958;50.892;3.992;2023-03-23T07:16:04;10.90;99.90
21592;DHT22;10958;50.892;3.992;2023-03-23T07:18:31;11.10;99.90
21592;DHT22;10958;50.892;3.992;2023-03-23T07:20:58;11.20;99.90
21592;DHT22;10958;50.892;3.992;2023-03-23T07:23:24;11.30;99.90
21592;DHT22;10958;50.892;3.992;2023-03-23T07:25:50;11.20;99.90
21592;DHT22;10958;50.892;3.992;2023-03-23T07:28:16;11.20;99.90
21592;DHT22;10958;50.892;3.992;2023-03-23T07:30:42;11.30;99.90
21592;DHT22;10958;50.892;3.992;2023-03-23T07:33:12;11.30;99.90
21592;DHT22;10958;50.892;3.992;2023-03-23T07:35:38;11.30;99.90
21592;DHT22;10958;50.892;3.992;2023-03-23T07:38:05;11.30;99.90
21592;DHT22;10958;50.892;3.992;2023-03-23T07:40:34;11.30;99.90
21592;DHT22;10958;50.892;3.992;2023-03-23T07:43:01;11.30;99.90
21592;DHT22;10958;50.892;3.992;2023-03-23T07:45:28;11.40;99.90
21592;DHT22;10958;50.892;3.992;2023-03-23T07:47:54;11.40;99.90
21592;DHT22;10958;50.892;3.992;2023-03-23T07:50:20;11.40;99.90
21592;DHT22;10958;50.892;3.992;2023-03-23T07:52:50;11.50;99.90
21592;DHT22;10958;50.892;3.992;2023-03-23T07:55:16;11.50;99.90
21592;DHT22;10958;50.892;3.992;2023-03-23T07:57:45;11.60;99.90
21592;DHT22;10958;50.892;3.992;2023-03-23T08:00:13;11.50;99.90
21592;DHT22;10958;50.892;3.992;2023-03-23T08:02:44;11.50;99.90
21592;DHT22;10958;50.892;3.992;2023-03-23T08:05:10;11.50;99.90
21592;DHT22;10958;50.892;3.992;2023-03-23T08:07:38;11.50;99.90
21592;DHT22;10958;50.892;3.992;2023-03-23T08:10:06;11.20;99.90
21592;DHT22;10958;50.892;3.992;2023-03-23T08:12:36;11.10;99.90
21592;DHT22;10958;50.892;3.992;2023-03-23T08:15:03;11.00;99.90
21592;DHT22;10958;50.892;3.992;2023-03-23T08:17:29;11.10;99.90
21592;DHT22;10958;50.892;3.992;2023-03-23T08:19:55;11.20;99.90
21592;DHT22;10958;50.892;3.992;2023-03-23T08:22:23;11.30;99.90
21592;DHT22;10958;50.892;3.992;2023-03-23T08:24:50;11.30;99.90
21592;DHT22;10958;50.892;3.992;2023-03-23T08:27:15;11.20;99.90
21592;DHT22;10958;50.892;3.992;2023-03-23T08:29:44;11.20;99.90
21592;DHT22;10958;50.892;3.992;2023-03-23T08:32:11;11.20;99.90
21592;DHT22;10958;50.892;3.992;2023-03-23T08:34:38;11.10;99.90
21592;DHT22;10958;50.892;3.992;2023-03-23T08:37:04;11.10;99.90
21592;DHT22;10958;50.892;3.992;2023-03-23T08:39:30;11.30;99.90
21592;DHT22;10958;50.892;3.992;2023-03-23T08:41:59;11.70;99.90
21592;DHT22;10958;50.892;3.992;2023-03-23T08:44:29;12.20;99.90
21592;DHT22;10958;50.892;3.992;2023-03-23T08:46:57;12.60;99.90
21592;DHT22;10958;50.892;3.992;2023-03-23T08:49:24;12.80;99.90
21592;DHT22;10958;50.892;3.992;2023-03-23T08:51:50;13.10;99.90
21592;DHT22;10958;50.892;3.992;2023-03-23T08:54:18;13.10;99.90
21592;DHT22;10958;50.892;3.992;2023-03-23T08:56:44;13.20;99.90
21592;DHT22;10958;50.892;3.992;2023-03-23T08:59:10;13.30;99.90
21592;DHT22;10958;50.892;3.992;2023-03-23T09:01:36;13.30;99.90
21592;DHT22;10958;50.892;3.992;2023-03-23T09:04:01;13.40;99.90
21592;DHT22;10958;50.892;3.992;2023-03-23T09:06:27;13.30;99.90
21592;DHT22;10958;50.892;3.992;2023-03-23T09:08:53;13.20;99.90
21592;DHT22;10958;50.892;3.992;2023-03-23T09:11:23;13.20;99.90
21592;DHT22;10958;50.892;3.992;2023-03-23T09:13:49;13.20;99.90
21592;DHT22;10958;50.892;3.992;2023-03-23T09:16:15;13.40;99.90
21592;DHT22;10958;50.892;3.992;2023-03-23T09:18:41;13.40;99.90
21592;DHT22;10958;50.892;3.992;2023-03-23T09:21:07;13.60;99.90
21592;DHT22;10958;50.892;3.992;2023-03-23T09:23:34;13.70;99.90
21592;DHT22;10958;50.892;3.992;2023-03-23T09:26:01;14.00;99.90
21592;DHT22;10958;50.892;3.992;2023-03-23T09:28:28;14.30;99.90
21592;DHT22;10958;50.892;3.992;2023-03-23T09:30:56;14.60;99.90
21592;DHT22;10958;50.892;3.992;2023-03-23T09:33:23;14.70;99.90
21592;DHT22;10958;50.892;3.992;2023-03-23T09:35:49;14.50;99.90
21592;DHT22;10958;50.892;3.992;2023-03-23T09:38:16;14.70;99.90
21592;DHT22;10958;50.892;3.992;2023-03-23T09:40:54;14.80;99.90
21592;DHT22;10958;50.892;3.992;2023-03-23T09:43:29;14.80;99.90
21592;DHT22;10958;50.892;3.992;2023-03-23T09:49:07;14.90;99.90
21592;DHT22;10958;50.892;3.992;2023-03-23T09:51:47;14.70;99.90
21592;DHT22;10958;50.892;3.992;2023-03-23T09:54:29;14.30;99.90
21592;DHT22;10958;50.892;3.992;2023-03-23T09:56:58;14.30;99.90
21592;DHT22;10958;50.892;3.992;2023-03-23T09:59:29;14.50;99.90
21592;DHT22;10958;50.892;3.992;2023-03-23T10:02:11;14.50;99.90
21592;DHT22;10958;50.892;3.992;2023-03-23T10:04:48;14.70;99.90
21592;DHT22;10958;50.892;3.992;2023-03-23T10:07:18;14.80;99.90
21592;DHT22;10958;50.892;3.992;2023-03-23T10:09:51;14.70;99.90
21592;DHT22;10958;50.892;3.992;2023-03-23T10:12:48;14.70;99.90
21592;DHT22;10958;50.892;3.992;2023-03-23T10:15:38;14.70;99.90
21592;DHT22;10958;50.892;3.992;2023-03-23T10:18:58;14.80;99.90
21592;DHT22;10958;50.892;3.992;2023-03-23T10:21:22;14.70;99.90
21592;DHT22;10958;50.892;3.992;2023-03-23T10:29:26;14.50;99.90
21592;DHT22;10958;50.892;3.992;2023-03-23T10:32:10;14.60;99.90
21592;DHT22;10958;50.892;3.992;2023-03-23T10:34:53;14.40;99.90
21592;DHT22;10958;50.892;3.992;2023-03-23T10:37:32;14.30;99.90
21592;DHT22;10958;50.892;3.992;2023-03-23T10:40:00;14.50;99.90
21592;DHT22;10958;50.892;3.992;2023-03-23T10:42:33;14.80;99.90
21592;DHT22;10958;50.892;3.992;2023-03-23T10:45:17;15.10;99.90
21592;DHT22;10958;50.892;3.992;2023-03-23T10:47:48;15.30;99.90
21592;DHT22;10958;50.892;3.992;2023-03-23T10:50:23;15.20;99.90
21592;DHT22;10958;50.892;3.992;2023-03-23T10:52:50;15.20;99.90
21592;DHT22;10958;50.892;3.992;2023-03-23T10:55:20;15.40;99.90
21592;DHT22;10958;50.892;3.992;2023-03-23T10:58:00;15.70;99.90
21592;DHT22;10958;50.892;3.992;2023-03-23T11:03:42;15.50;99.90
21592;DHT22;10958;50.892;3.992;2023-03-23T11:06:24;15.10;99.90
21592;DHT22;10958;50.892;3.992;2023-03-23T11:09:00;15.00;99.90
21592;DHT22;10958;50.892;3.992;2023-03-23T11:11:30;14.90;99.90
21592;DHT22;10958;50.892;3.992;2023-03-23T11:13:59;15.20;99.90
21592;DHT22;10958;50.892;3.992;2023-03-23T11:18:51;15.50;99.90
21592;DHT22;10958;50.892;3.992;2023-03-23T11:21:19;15.50;99.90
21592;DHT22;10958;50.892;3.992;2023-03-23T11:23:58;15.20;99.90
21592;DHT22;10958;50.892;3.992;2023-03-23T11:26:28;15.20;99.90
21592;DHT22;10958;50.892;3.992;2023-03-23T11:29:14;15.20;99.90
21592;DHT22;10958;50.892;3.992;2023-03-23T11:31:53;15.40;99.90
21592;DHT22;10958;50.892;3.992;2023-03-23T11:34:31;15.50;99.90
21592;DHT22;10958;50.892;3.992;2023-03-23T11:37:14;15.80;99.90
21592;DHT22;10958;50.892;3.992;2023-03-23T11:39:57;15.70;99.90
21592;DHT22;10958;50.892;3.992;2023-03-23T11:42:45;15.80;99.90
21592;DHT22;10958;50.892;3.992;2023-03-23T11:45:18;15.80;99.90
21592;DHT22;10958;50.892;3.992;2023-03-23T11:58:47;15.40;99.90
21592;DHT22;10958;50.892;3.992;2023-03-23T12:01:27;15.30;99.90
21592;DHT22;10958;50.892;3.992;2023-03-23T12:07:14;15.60;99.90
21592;DHT22;10958;50.892;3.992;2023-03-23T12:09:55;15.70;99.90
21592;DHT22;10958;50.892;3.992;2023-03-23T12:12:39;15.80;99.90
21592;DHT22;10958;50.892;3.992;2023-03-23T12:21:18;16.10;99.90
21592;DHT22;10958;50.892;3.992;2023-03-23T12:29:21;16.10;99.90
21592;DHT22;10958;50.892;3.992;2023-03-23T12:32:14;16.20;99.90
21592;DHT22;10958;50.892;3.992;2023-03-23T12:40:19;16.40;99.90
21592;DHT22;10958;50.892;3.992;2023-03-23T12:48:00;16.40;99.90
21592;DHT22;10958;50.892;3.992;2023-03-23T12:50:36;16.30;99.90
21592;DHT22;10958;50.892;3.992;2023-03-23T12:55:49;16.30;99.90
21592;DHT22;10958;50.892;3.992;2023-03-23T12:58:24;16.20;99.90
21592;DHT22;10958;50.892;3.992;2023-03-23T13:01:19;16.10;99.90
21592;DHT22;10958;50.892;3.992;2023-03-23T13:03:53;16.10;99.90
21592;DHT22;10958;50.892;3.992;2023-03-23T13:06:42;16.20;99.90
21592;DHT22;10958;50.892;3.992;2023-03-23T13:09:19;16.30;99.90
21592;DHT22;10958;50.892;3.992;2023-03-23T13:11:48;16.30;99.90
21592;DHT22;10958;50.892;3.992;2023-03-23T13:22:12;16.60;99.90
21592;DHT22;10958;50.892;3.992;2023-03-23T13:24:48;16.50;99.90
21592;DHT22;10958;50.892;3.992;2023-03-23T13:27:15;16.60;99.90
21592;DHT22;10958;50.892;3.992;2023-03-23T13:29:46;16.50;99.90
21592;DHT22;10958;50.892;3.992;2023-03-23T13:32:16;16.40;99.90
21592;DHT22;10958;50.892;3.992;2023-03-23T13:34:42;16.40;99.90
21592;DHT22;10958;50.892;3.992;2023-03-23T13:37:26;16.30;99.90
21592;DHT22;10958;50.892;3.992;2023-03-23T13:42:52;16.50;99.90
21592;DHT22;10958;50.892;3.992;2023-03-23T13:48:39;16.50;99.90
21592;DHT22;10958;50.892;3.992;2023-03-23T13:51:33;16.50;99.90
21592;DHT22;10958;50.892;3.992;2023-03-23T13:56:43;16.50;99.90
21592;DHT22;10958;50.892;3.992;2023-03-23T13:59:28;16.50;99.90
21592;DHT22;10958;50.892;3.992;2023-03-23T14:02:20;16.40;99.90
21592;DHT22;10958;50.892;3.992;2023-03-23T14:04:40;16.50;99.90
21592;DHT22;10958;50.892;3.992;2023-03-23T14:07:11;16.80;99.90
21592;DHT22;10958;50.892;3.992;2023-03-23T14:09:40;16.90;99.90
21592;DHT22;10958;50.892;3.992;2023-03-23T14:12:27;16.90;99.90
21592;DHT22;10958;50.892;3.992;2023-03-23T14:15:01;16.70;99.90
21592;DHT22;10958;50.892;3.992;2023-03-23T14:17:33;16.50;99.90
21592;DHT22;10958;50.892;3.992;2023-03-23T14:20:00;16.30;99.90
21592;DHT22;10958;50.892;3.992;2023-03-23T14:22:31;16.50;99.90
21592;DHT22;10958;50.892;3.992;2023-03-23T14:25:19;16.60;99.90
21592;DHT22;10958;50.892;3.992;2023-03-23T14:27:46;16.50;99.90
21592;DHT22;10958;50.892;3.992;2023-03-23T14:30:15;16.30;99.90
21592;DHT22;10958;50.892;3.992;2023-03-23T14:32:41;16.10;99.90
21592;DHT22;10958;50.892;3.992;2023-03-23T14:37:44;15.80;99.90
21592;DHT22;10958;50.892;3.992;2023-03-23T14:40:14;15.80;99.90
21592;DHT22;10958;50.892;3.992;2023-03-23T14:42:41;15.80;99.90
21592;DHT22;10958;50.892;3.992;2023-03-23T14:45:12;16.00;99.90
21592;DHT22;10958;50.892;3.992;2023-03-23T14:47:46;16.30;99.90
21592;DHT22;10958;50.892;3.992;2023-03-23T14:50:38;16.30;99.90
21592;DHT22;10958;50.892;3.992;2023-03-23T14:53:24;16.10;99.90
21592;DHT22;10958;50.892;3.992;2023-03-23T14:55:52;16.10;99.90
21592;DHT22;10958;50.892;3.992;2023-03-23T14:58:23;16.10;99.90
21592;DHT22;10958;50.892;3.992;2023-03-23T15:01:01;16.00;99.90
21592;DHT22;10958;50.892;3.992;2023-03-23T15:03:30;15.90;99.90
21592;DHT22;10958;50.892;3.992;2023-03-23T15:06:00;15.80;99.90
21592;DHT22;10958;50.892;3.992;2023-03-23T15:08:30;15.70;99.90
21592;DHT22;10958;50.892;3.992;2023-03-23T15:11:08;15.70;99.90
21592;DHT22;10958;50.892;3.992;2023-03-23T15:13:41;15.70;99.90
21592;DHT22;10958;50.892;3.992;2023-03-23T15:16:14;15.80;99.90
21592;DHT22;10958;50.892;3.992;2023-03-23T15:18:44;15.90;99.90
21592;DHT22;10958;50.892;3.992;2023-03-23T15:21:22;16.00;99.90
21592;DHT22;10958;50.892;3.992;2023-03-23T15:23:48;16.10;99.90
21592;DHT22;10958;50.892;3.992;2023-03-23T15:26:32;16.20;99.90
21592;DHT22;10958;50.892;3.992;2023-03-23T15:29:24;16.10;99.90
21592;DHT22;10958;50.892;3.992;2023-03-23T15:31:54;16.20;99.90
21592;DHT22;10958;50.892;3.992;2023-03-23T15:36:55;16.20;99.90
21592;DHT22;10958;50.892;3.992;2023-03-23T15:39:22;16.00;99.90
21592;DHT22;10958;50.892;3.992;2023-03-23T15:41:50;15.80;99.90
21592;DHT22;10958;50.892;3.992;2023-03-23T15:44:34;15.60;99.90
21592;DHT22;10958;50.892;3.992;2023-03-23T15:47:16;15.40;99.90
21592;DHT22;10958;50.892;3.992;2023-03-23T15:49:44;15.20;99.90
21592;DHT22;10958;50.892;3.992;2023-03-23T15:52:13;15.40;99.90
21592;DHT22;10958;50.892;3.992;2023-03-23T15:54:46;15.40;99.90
21592;DHT22;10958;50.892;3.992;2023-03-23T15:57:12;15.50;99.90
21592;DHT22;10958;50.892;3.992;2023-03-23T15:59:38;15.50;99.90
21592;DHT22;10958;50.892;3.992;2023-03-23T16:02:08;15.50;99.90
21592;DHT22;10958;50.892;3.992;2023-03-23T16:04:34;15.60;99.90
21592;DHT22;10958;50.892;3.992;2023-03-23T16:06:59;15.70;99.90
21592;DHT22;10958;50.892;3.992;2023-03-23T16:09:25;15.80;99.90
21592;DHT22;10958;50.892;3.992;2023-03-23T16:11:51;15.90;99.90
21592;DHT22;10958;50.892;3.992;2023-03-23T16:14:16;16.00;99.90
21592;DHT22;10958;50.892;3.992;2023-03-23T16:16:48;15.90;99.90
21592;DHT22;10958;50.892;3.992;2023-03-23T16:19:15;15.80;99.90
21592;DHT22;10958;50.892;3.992;2023-03-23T16:21:44;15.70;99.90
21592;DHT22;10958;50.892;3.992;2023-03-23T16:24:10;15.60;99.90
21592;DHT22;10958;50.892;3.992;2023-03-23T16:26:36;15.50;99.90
21592;DHT22;10958;50.892;3.992;2023-03-23T16:29:15;15.50;99.90
21592;DHT22;10958;50.892;3.992;2023-03-23T16:31:40;15.40;99.90
21592;DHT22;10958;50.892;3.992;2023-03-23T16:34:07;15.40;99.90
21592;DHT22;10958;50.892;3.992;2023-03-23T16:36:33;15.40;99.90
21592;DHT22;10958;50.892;3.992;2023-03-23T16:38:59;15.40;99.90
21592;DHT22;10958;50.892;3.992;2023-03-23T16:41:26;15.30;99.90
21592;DHT22;10958;50.892;3.992;2023-03-23T16:43:52;15.30;99.90
21592;DHT22;10958;50.892;3.992;2023-03-23T16:46:17;15.30;99.90
21592;DHT22;10958;50.892;3.992;2023-03-23T16:48:44;15.20;99.90
21592;DHT22;10958;50.892;3.992;2023-03-23T16:51:09;15.20;99.90
21592;DHT22;10958;50.892;3.992;2023-03-23T16:53:35;15.30;99.90
21592;DHT22;10958;50.892;3.992;2023-03-23T16:56:02;15.30;99.90
21592;DHT22;10958;50.892;3.992;2023-03-23T16:58:28;15.30;99.90
21592;DHT22;10958;50.892;3.992;2023-03-23T17:00:57;15.40;99.90
21592;DHT22;10958;50.892;3.992;2023-03-23T17:03:22;15.30;99.90
21592;DHT22;10958;50.892;3.992;2023-03-23T17:05:49;15.30;99.90
21592;DHT22;10958;50.892;3.992;2023-03-23T17:08:16;15.30;99.90
21592;DHT22;10958;50.892;3.992;2023-03-23T17:10:43;15.30;99.90
21592;DHT22;10958;50.892;3.992;2023-03-23T17:13:09;15.30;99.90
21592;DHT22;10958;50.892;3.992;2023-03-23T17:15:37;15.30;99.90
21592;DHT22;10958;50.892;3.992;2023-03-23T17:18:05;15.30;99.90
21592;DHT22;10958;50.892;3.992;2023-03-23T17:20:32;15.20;99.90